createdAt,value
2023-04-08T00:01:35.507Z,100277.38
2023-04-08T00:06:37.395Z,100269.56
2023-04-08T00:11:39.819Z,100265.22
2023-04-08T00:16:41.570Z,100273.03
2023-04-08T00:21:43.244Z,100269.59
2023-04-08T00:26:44.893Z,100268.72
2023-04-08T00:31:46.656Z,100263.50
2023-04-08T00:36:48.616Z,100264.38
2023-04-08T00:41:50.443Z,100268.69
2023-04-08T00:46:52.090Z,100276.50
2023-04-08T00:51:55.315Z,100273.03
2023-04-08T00:56:57.690Z,100273.00
2023-04-08T01:02:08.614Z,100266.91
2023-04-08T01:07:17.448Z,100267.78
2023-04-08T01:12:27.228Z,100265.19
2023-04-08T01:17:32.185Z,100261.72
2023-04-08T01:22:55.423Z,100261.66
2023-04-08T01:27:58.615Z,100259.94
2023-04-08T01:33:02.552Z,100261.69
2023-04-08T01:38:08.743Z,100260.00
2023-04-08T01:43:14.859Z,100264.25
2023-04-08T01:48:16.659Z,100266.88
2023-04-08T01:53:18.733Z,100252.94
2023-04-08T01:58:22.057Z,100266.00
2023-04-08T02:03:25.780Z,100260.81
2023-04-08T02:08:27.556Z,100266.88
2023-04-08T02:13:32.273Z,100262.50
2023-04-08T02:18:36.515Z,100266.81
2023-04-08T02:23:40.949Z,100272.94
2023-04-08T02:28:43.161Z,100274.66
2023-04-08T02:33:46.064Z,100265.16
2023-04-08T02:38:51.331Z,100274.66
2023-04-08T02:43:55.539Z,100271.13
2023-04-08T02:48:57.234Z,100268.53
2023-04-08T02:53:58.860Z,100282.50
2023-04-08T02:59:00.854Z,100286.84
2023-04-08T03:04:02.629Z,100291.13
2023-04-08T03:09:05.889Z,100284.22
2023-04-08T03:14:07.735Z,100282.44
2023-04-08T03:19:09.372Z,100278.97
2023-04-08T03:24:11.189Z,100282.41
2023-04-08T03:29:12.974Z,100274.59
2023-04-08T03:34:14.825Z,100279.88
2023-04-08T03:39:16.828Z,100275.53
2023-04-08T03:44:18.464Z,100278.13
2023-04-08T03:49:20.292Z,100284.22
2023-04-08T03:54:21.967Z,100277.28
2023-04-08T03:59:23.655Z,100280.69
2023-04-08T04:04:25.485Z,100286.81
2023-04-08T04:09:27.237Z,100279.81
2023-04-08T04:14:28.852Z,100288.50
2023-04-08T04:19:31.791Z,100298.94
2023-04-08T04:24:33.434Z,100292.88
2023-04-08T04:29:35.031Z,100298.09
2023-04-08T04:34:36.730Z,100299.81
2023-04-08T04:39:38.362Z,100293.75
2023-04-08T04:44:40.178Z,100301.53
2023-04-08T04:49:42.102Z,100313.69
2023-04-08T04:54:47.145Z,100314.56
2023-04-08T04:59:49.201Z,100325.84
2023-04-08T05:04:53.757Z,100331.78
2023-04-08T05:09:55.782Z,100327.47
2023-04-08T05:15:00.752Z,100336.22
2023-04-08T05:20:03.118Z,100334.50
2023-04-08T05:25:06.679Z,100339.72
2023-04-08T05:30:11.948Z,100338.84
2023-04-08T05:35:14.396Z,100341.41
2023-04-08T05:40:16.777Z,100344.88
2023-04-08T05:45:19.459Z,100350.06
2023-04-08T05:50:21.305Z,100348.31
2023-04-08T05:55:23.242Z,100350.06
2023-04-08T06:00:25.406Z,100363.09
2023-04-08T06:05:27.314Z,100355.19
2023-04-08T06:10:29.266Z,100363.91
2023-04-08T06:15:32.954Z,100367.38
2023-04-08T06:20:36.455Z,100364.69
2023-04-08T06:25:38.515Z,100386.44
2023-04-08T06:30:40.358Z,100386.44
2023-04-08T06:35:42.249Z,100390.75
2023-04-08T06:40:43.908Z,100385.50
2023-04-08T06:45:46.096Z,100388.03
2023-04-08T06:50:47.777Z,100395.75
2023-04-08T06:55:49.465Z,100401.69
2023-04-08T07:00:51.197Z,100413.00
2023-04-08T07:05:53.386Z,100415.63
2023-04-08T07:10:55.064Z,100427.66
2023-04-08T07:15:56.717Z,100423.31
2023-04-08T07:20:58.458Z,100435.53
2023-04-08T07:26:05.236Z,100442.38
2023-04-08T07:31:17.420Z,100440.59
2023-04-08T07:36:19.247Z,100450.22
2023-04-08T07:41:21.310Z,100448.25
2023-04-08T07:46:23.011Z,100459.63
2023-04-08T07:51:24.674Z,100470.81
2023-04-08T07:56:26.349Z,100475.81
2023-04-08T08:01:31.255Z,100474.22
2023-04-08T08:06:33.297Z,100481.06
2023-04-08T08:11:35.237Z,100483.81
2023-04-08T08:16:38.703Z,100491.47
2023-04-08T08:21:40.553Z,100487.81
2023-04-08T08:26:42.732Z,100495.72
2023-04-08T08:31:44.431Z,100496.25
2023-04-08T08:36:46.256Z,100497.84
2023-04-08T08:41:47.981Z,100503.75
2023-04-08T08:46:49.817Z,100514.53
2023-04-08T08:51:54.327Z,100505.69
2023-04-08T08:56:55.961Z,100520.34
2023-04-08T09:01:57.765Z,100524.53
2023-04-08T09:07:10.740Z,100534.06
2023-04-08T09:12:14.028Z,100539.22
2023-04-08T09:17:17.194Z,100547.84
2023-04-08T09:22:18.858Z,100547.06
2023-04-08T09:27:36.588Z,100556.13
2023-04-08T09:32:49.248Z,100554.25
2023-04-08T09:37:51.362Z,100555.91
2023-04-08T09:42:56.245Z,100558.44
2023-04-08T09:48:13.466Z,100556.44
2023-04-08T09:53:26.330Z,100561.75
2023-04-08T09:58:58.846Z,100569.56
2023-04-08T10:04:01.923Z,100568.59
2023-04-08T10:09:04.367Z,100562.31
2023-04-08T10:14:06.114Z,100563.88
2023-04-08T10:19:37.368Z,100572.59
2023-04-08T10:24:38.984Z,100578.94
2023-04-08T10:29:40.620Z,100578.06
2023-04-08T10:34:52.748Z,100580.69
2023-04-08T10:39:54.481Z,100583.16
2023-04-08T10:45:00.749Z,100577.84
2023-04-08T10:50:13.171Z,100577.88
2023-04-08T10:55:15.183Z,100578.78
2023-04-08T11:00:32.632Z,100575.81
2023-04-08T11:05:36.812Z,100579.22
2023-04-08T11:10:39.094Z,100586.34
2023-04-08T11:15:42.692Z,100581.47
2023-04-08T11:20:45.138Z,100587.59
2023-04-08T11:25:48.158Z,100586.00
2023-04-08T11:30:50.387Z,100599.13
2023-04-08T11:35:52.302Z,100597.59
2023-04-08T11:41:01.263Z,100598.41
2023-04-08T11:46:12.662Z,100612.44
2023-04-08T11:51:14.915Z,100615.06
2023-04-08T11:56:21.538Z,100613.78
2023-04-08T12:01:23.231Z,100609.41
2023-04-08T12:06:25.169Z,100609.34
2023-04-08T12:11:26.944Z,100606.53
2023-04-08T12:16:28.787Z,100618.59
2023-04-08T12:21:33.980Z,100618.81
2023-04-08T12:26:35.742Z,100616.09
2023-04-08T12:31:37.500Z,100631.56
2023-04-08T12:36:41.344Z,100635.72
2023-04-08T12:41:43.541Z,100627.19
2023-04-08T12:46:45.421Z,100631.78
2023-04-08T12:51:47.113Z,100639.50
2023-04-08T12:56:48.940Z,100640.34
2023-04-08T13:01:50.769Z,100643.97
2023-04-08T13:06:52.730Z,100652.81
2023-04-08T13:11:54.448Z,100652.97
2023-04-08T13:16:57.380Z,100654.81
2023-04-08T13:21:59.810Z,100655.44
2023-04-08T13:27:02.945Z,100653.75
2023-04-08T13:32:05.258Z,100657.00
2023-04-08T13:37:07.592Z,100665.66
2023-04-08T13:42:09.863Z,100666.38
2023-04-08T13:47:12.530Z,100664.69
2023-04-08T13:52:14.336Z,100667.03
2023-04-08T13:57:16.338Z,100658.28
2023-04-08T14:02:18.417Z,100664.25
2023-04-08T14:07:20.229Z,100662.44
2023-04-08T14:12:21.920Z,100667.78
2023-04-08T14:17:23.774Z,100675.28
2023-04-08T14:22:25.470Z,100677.13
2023-04-08T14:27:27.912Z,100673.88
2023-04-08T14:32:29.726Z,100682.69
2023-04-08T14:37:31.505Z,100684.34
2023-04-08T14:42:33.193Z,100682.41
2023-04-08T14:47:34.947Z,100682.38
2023-04-08T14:52:36.660Z,100688.53
2023-04-08T14:57:38.358Z,100695.88
2023-04-08T15:02:40.244Z,100686.22
2023-04-08T15:07:43.016Z,100689.78
2023-04-08T15:12:44.737Z,100686.28
2023-04-08T15:17:46.553Z,100696.72
2023-04-08T15:22:48.403Z,100694.13
2023-04-08T15:27:50.132Z,100697.59
2023-04-08T15:32:52.597Z,100707.38
2023-04-08T15:37:54.738Z,100705.56
2023-04-08T15:42:56.689Z,100717.72
2023-04-08T15:47:59.584Z,100717.72
2023-04-08T15:53:01.426Z,100716.78
2023-04-08T15:58:03.126Z,100717.59
2023-04-08T16:03:05.973Z,100725.56
2023-04-08T16:08:08.016Z,100733.44
2023-04-08T16:13:09.724Z,100735.22
2023-04-08T16:18:11.570Z,100750.84
2023-04-08T16:23:15.620Z,100755.28
2023-04-08T16:28:18.178Z,100760.44
2023-04-08T16:33:23.938Z,100759.75
2023-04-08T16:38:26.670Z,100764.06
2023-04-08T16:43:29.386Z,100764.88
2023-04-08T16:48:31.280Z,100775.53
2023-04-08T16:53:33.175Z,100767.66
2023-04-08T16:58:34.877Z,100772.88
2023-04-08T17:03:36.937Z,100773.75
2023-04-08T17:08:38.874Z,100784.19
2023-04-08T17:13:42.671Z,100780.75
2023-04-08T17:18:45.827Z,100790.34
2023-04-08T17:23:47.672Z,100794.69
2023-04-08T17:28:49.926Z,100800.72
2023-04-08T17:33:51.859Z,100804.25
2023-04-08T17:38:53.843Z,100807.75
2023-04-08T17:43:55.724Z,100812.16
2023-04-08T17:48:57.712Z,100815.63
2023-04-08T17:53:59.461Z,100821.75
2023-04-08T17:59:01.930Z,100831.31
2023-04-08T18:04:06.867Z,100832.22
2023-04-08T18:09:08.902Z,100838.28
2023-04-08T18:14:10.649Z,100854.84
2023-04-08T18:19:13.434Z,100853.09
2023-04-08T18:24:15.486Z,100854.81
2023-04-08T18:29:18.040Z,100860.91
2023-04-08T18:34:20.892Z,100864.41
2023-04-08T18:39:22.752Z,100878.31
2023-04-08T18:44:24.660Z,100875.69
2023-04-08T18:49:26.398Z,100886.09
2023-04-08T18:54:28.254Z,100892.25
2023-04-08T18:59:30.420Z,100898.28
2023-04-08T19:04:33.473Z,100893.97
2023-04-08T19:09:35.337Z,100903.50
2023-04-08T19:14:37.477Z,100906.97
2023-04-08T19:19:39.245Z,100903.50
2023-04-08T19:24:40.859Z,100909.53
2023-04-08T19:29:42.821Z,100893.03
2023-04-08T19:34:44.467Z,100902.59
2023-04-08T19:39:46.264Z,100903.44
2023-04-08T19:44:48.758Z,100896.34
2023-04-08T19:49:50.623Z,100896.34
2023-04-08T19:54:52.378Z,100895.44
2023-04-08T19:59:54.880Z,100905.88
2023-04-08T20:04:57.291Z,100909.44
2023-04-08T20:09:59.034Z,100916.94
2023-04-08T20:15:01.176Z,100911.69
2023-04-08T20:20:05.243Z,100912.44
2023-04-08T20:25:07.168Z,100912.44
2023-04-08T20:30:09.918Z,100915.06
2023-04-08T20:35:11.846Z,100912.34
2023-04-08T20:40:13.858Z,100898.25
2023-04-08T20:45:16.459Z,100905.03
2023-04-08T20:50:18.175Z,100910.94
2023-04-08T20:55:19.840Z,100910.28
2023-04-08T21:00:21.567Z,100915.94
2023-04-08T21:05:23.437Z,100906.47
2023-04-08T21:10:25.251Z,100909.25
2023-04-08T21:15:27.532Z,100908.94
2023-04-08T21:20:29.194Z,100920.63
2023-04-08T21:25:31.501Z,100935.66
2023-04-08T21:30:33.128Z,100940.28
2023-04-08T21:35:34.893Z,100930.13
2023-04-08T21:40:36.577Z,100925.22
2023-04-08T21:45:38.267Z,100938.88
2023-04-08T21:50:41.582Z,100948.31
2023-04-08T21:55:43.318Z,100940.97
2023-04-08T22:00:45.211Z,100942.31
2023-04-08T22:05:46.930Z,100927.00
2023-04-08T22:10:48.839Z,100935.72
2023-04-08T22:15:50.703Z,100924.41
2023-04-08T22:20:52.456Z,100923.50
2023-04-08T22:25:54.263Z,100925.88
2023-04-08T22:30:56.235Z,100925.50
2023-04-08T22:35:58.023Z,100919.34
2023-04-08T22:40:59.728Z,100915.88
2023-04-08T22:46:01.444Z,100910.00
2023-04-08T22:51:03.385Z,100905.19
2023-04-08T22:56:05.336Z,100903.97
2023-04-08T23:01:17.248Z,100910.13
2023-04-08T23:06:19.179Z,100913.19
2023-04-08T23:11:20.914Z,100915.34
2023-04-08T23:16:22.713Z,100911.59
2023-04-08T23:21:24.535Z,100919.22
2023-04-08T23:26:26.215Z,100929.53
2023-04-08T23:31:27.979Z,100928.56
2023-04-08T23:36:29.754Z,100926.84
2023-04-08T23:41:31.438Z,100930.75
2023-04-08T23:46:33.277Z,100935.00
2023-04-08T23:51:38.738Z,100925.34
2023-04-08T23:56:41.630Z,100928.50
